This is the latest recevied weather packets stored in our database for station/object VK4ZPK-13. If no packets are shown the sender has not sent any weather packets the latest 10 day(s).
| Time | Temp. | Humidity | Pressure | Rain* | Wind** | Luminosity | Snow |
|---|---|---|---|---|---|---|---|
| 1777979546 | 21.67° C | 91% | 1013.8 hPa | 0 mm | - | - | - |
| 1777977746 | 21.67° C | 91% | 1013.8 hPa | 0 mm | - | - | - |
| 1777975946 | 21.67° C | 90% | 1013.7 hPa | 0 mm | - | - | - |
| 1777974146 | 22.22° C | 89% | 1013.6 hPa | 0 mm | - | - | - |
| 1777972346 | 22.22° C | 89% | 1013.2 hPa | 0 mm | - | - | - |
| 1777970546 | 22.22° C | 88% | 1013.2 hPa | 0 mm | - | - | - |
| 1777968746 | 22.78° C | 87% | 1012.7 hPa | 0 mm | - | - | - |
| 1777966946 | 22.78° C | 86% | 1012.5 hPa | 0 mm | - | - | - |
| 1777965146 | 23.33° C | 85% | 1012.5 hPa | 0 mm | - | - | - |
| 1777963346 | 23.89° C | 84% | 1012 hPa | 0 mm | - | - | - |
| 1777961546 | 23.89° C | 84% | 1012 hPa | 0 mm | - | - | - |
| 1777959746 | 24.44° C | 82% | 1011.7 hPa | 0 mm | - | - | - |
| 1777957946 | 25° C | 80% | 1011.7 hPa | 0 mm | - | - | - |
| 1777956146 | 25° C | 79% | 1011.8 hPa | 0 mm | - | - | - |
| 1777954346 | 25.56° C | 78% | 1011.6 hPa | 0 mm | - | - | - |
| 1777952546 | 25.56° C | 78% | 1011.8 hPa | 0 mm | - | - | - |
| 1777950746 | 26.11° C | 76% | 1011.9 hPa | 0 mm | - | - | - |
| 1777948946 | 26.11° C | 77% | 1012 hPa | 0 mm | - | - | - |
| 1777947146 | 26.11° C | 76% | 1012.3 hPa | 0 mm | - | - | - |
| 1777945346 | 26.11° C | 78% | 1012.5 hPa | 0 mm | - | - | - |
| 1777943546 | 26.11° C | 79% | 1013.1 hPa | 0 mm | - | - | - |
| 1777941746 | 25° C | 80% | 1013.5 hPa | 0 mm | - | - | - |
| 1777939946 | 25° C | 86% | 1013.6 hPa | 0 mm | - | - | - |
| 1777938146 | 23.89° C | 88% | 1013.6 hPa | 0 mm | - | - | - |
| 1777936346 | 23.89° C | 90% | 1013.9 hPa | 0 mm | - | - | - |
* Rain latest hour (hover to see other rain measurements)
** Current wind speed in m/s (hover to see current wind gust speed)